AirNav   TITAN Aviation Fuels
 
 1229 users online  

60CA Q Area Heliport
Concord, California, USA

GOING TO CONCORD?


FAA INFORMATION EFFECTIVE 08 SEPTEMBER 2022

Location

FAA Identifier: 60CA
Lat/Long: 38-02-42.5100N 122-00-26.2400W
38-02.708500N 122-00.437333W
38.0451417,-122.0072889
(estimated)
Elevation: 49 ft. / 15 m (estimated)
Variation: 16E (1985)
From city: 5 miles NE of CONCORD, CA
Time zone: UTC -7 (UTC -8 during Standard Time)
Zip code: 94520

Heliport Operations

Heliport use: Private use. Permission required prior to landing
Activation date: 07/1982
Control tower: no
ARTCC: OAKLAND CENTER
FSS: OAKLAND FLIGHT SERVICE STATION
Attendance: UNATNDD
Wind indicator: yes
Segmented circle: no

Heliport Communications

WX ASOS at CCR (4 nm SW): PHONE 925-689-2077
WX ASOS at APC (16 nm NW): PHONE 707-252-7916
WX AWOS-AV at O88 (17 nm NE): 127.075 (707-374-5396)

Nearby radio navigation aids

VOR radial/distance  VOR name  Freq  Var
CCRr073/1.8CONCORD VOR/DME117.0017E
SGDr098/19.1SCAGGS ISLAND VORTAC112.1017E
OAKr011/21.7OAKLAND VOR/DME116.8017E
SAUr048/26.9SAUSALITO VOR/DME116.2017E
SFOr017/30.9SAN FRANCISCO VOR/DME115.8017E
SACr205/32.1SACRAMENTO VORTAC115.2017E

Heliport Services

Runway Information

Helipad H1

Dimensions: 100 x 100 ft. / 30 x 30 m
Surface: concrete
Latitude: 38-02.708500N
Longitude: 122-00.437333W
Elevation: 49.0 ft.
Traffic pattern: leftleft

Heliport Ownership and Management from official FAA records

Ownership: U.S. Navy
Owner: NAVAL WEAPONS STATION
PORT CHICAGO HWY
CONCORD, CA 94520
Phone 510-246-5650
Manager: G.R. WEGENER
NAVAL WEAPONS STATION
CONCORD, CA 94520
Phone 510-246-5817

Additional Remarks

POC AT WPNSTA CONCORD IS R. PIEPER (510) 246-5650 FAX (510) 246-2003.
FOR CD CTC OAKLAND ARTCC AT 510-745-3380.

Instrument Procedures

There are no published instrument procedures at 60CA.

Some nearby airports with instrument procedures:

KCCR - Buchanan Field Airport (4 nm SW)
KSUU - Travis Air Force Base (14 nm N)
KAPC - Napa County Airport (16 nm NW)
O88 - Rio Vista Municipal Airport (17 nm NE)
KVCB - Nut Tree Airport (20 nm N)
 
Loc | Ops | Rwys | IFR | FBO | Links
Com | Nav | Svcs | Stats | Notes

Sonoma Jet Center
 
Area around 60CA (Q Area Heliport)
 
Road maps at: MapQuest Bing Google
 
Aerial photo
No photo
 
Sectional chart

 
Airport distance calculator
Flying to Q Area Heliport? Find the distance to fly.

From to 60CA

Sunrise and sunset
Times for 03-Oct-2022
 Local
(UTC-7)
 Zulu
(UTC)
Morning civil twilight06:4013:40
Sunrise07:0714:07
Sunset18:4801:48
Evening civil twilight19:1402:14

Current date and time
Zulu (UTC)  04-Oct-2022 00:48:01
Local (UTC-7)  03-Oct-2022 17:48:01
 
METAR
KCCR 
3nm SW 
032353Z 27009KT 10SM CLR 27/12 A2997 RMK AO2 SLP134 T02670117 10283 20211 56010
KSUU 
14nm N 
032356Z AUTO 23017KT 10SM CLR 28/12 A2992 RMK AO2 SLP138 T02770121 10297 20230 57018 $
KAPC 
16nm NW 
032354Z 27011KT 10SM CLR 26/13 A2998 RMK AO2 SLP142 T02560128 10261 20200 56014
TAF
KSUU 
14nm N 
032310Z 0323/0501 23010G15KT 9999 SKC QNH2991INS TEMPO 0402/0407 23015G25KT BECMG 0406/0407 23010G15KT 9999 SKC QNH2997INS TX29/0323Z TN12/0413Z
KAPC 
16nm NW 
031732Z 0318/0418 23006KT P6SM SKC FM032100 20015KT P6SM SKC FM040400 24006KT P6SM SKC FM040900 22008KT P6SM FEW010 FM041300 VRB04KT 4SM BR SCT005
NOTAMs
Click for the latest NOTAMs
NOTAMs are issued by the DoD/FAA and will open in a separate window not controlled by AirNav.

 

 
 

Would you like to see your business listed on this page?

 If your business provides an interesting product or service to pilots, flight crews, aircraft, or users of the Q Area Heliport, you should consider listing it here.  To start the listing process, click on the button below
 
Add a business
 

Other Pages about Q Area Heliport

Update a link
 
Copyright © AirNav, LLC. All rights reserved. Privacy Policy  Contact